createdAt,value
2022-11-07T00:00:29.245Z,6.4
2022-11-07T00:05:17.564Z,6.4
2022-11-07T00:10:23.711Z,6.4
2022-11-07T00:15:29.682Z,6.4
2022-11-07T00:20:18.817Z,6.3
2022-11-07T00:25:24.947Z,6.3
2022-11-07T00:30:30.838Z,6.3
2022-11-07T00:35:19.975Z,6.2
2022-11-07T00:40:26.039Z,6.2
2022-11-07T00:45:31.791Z,6.1
2022-11-07T00:50:20.960Z,6.1
2022-11-07T00:55:26.962Z,6.0
2022-11-07T01:00:16.085Z,6.0
2022-11-07T01:05:22.588Z,6.1
2022-11-07T01:10:28.606Z,6.1
2022-11-07T01:15:17.365Z,6.1
2022-11-07T01:20:23.571Z,6.1
2022-11-07T01:25:29.560Z,6.1
2022-11-07T01:30:18.632Z,6.1
2022-11-07T01:35:24.606Z,6.1
2022-11-07T01:40:30.709Z,6.1
2022-11-07T01:45:19.523Z,6.1
2022-11-07T01:50:25.595Z,6.1
2022-11-07T01:55:31.760Z,6.1
2022-11-07T02:00:20.915Z,6.1
2022-11-07T02:05:26.975Z,6.1
2022-11-07T02:10:16.116Z,6.1
2022-11-07T02:15:22.211Z,6.1
2022-11-07T02:20:28.183Z,6.2
2022-11-07T02:25:17.223Z,6.2
2022-11-07T02:30:23.297Z,6.3
2022-11-07T02:35:29.379Z,6.3
2022-11-07T02:40:18.564Z,6.4
2022-11-07T02:45:24.223Z,6.4
2022-11-07T02:50:30.171Z,6.4
2022-11-07T02:55:20.107Z,6.4
2022-11-07T03:00:25.473Z,6.5
2022-11-07T03:05:30.603Z,6.5
2022-11-07T03:10:19.799Z,6.6
2022-11-07T03:15:25.999Z,6.6
2022-11-07T03:20:31.757Z,6.7
2022-11-07T03:25:20.893Z,6.8
2022-11-07T03:30:27.134Z,6.9
2022-11-07T03:35:15.986Z,6.9
2022-11-07T03:40:22.060Z,7.0
2022-11-07T03:45:28.460Z,7.1
2022-11-07T03:50:17.480Z,7.2
2022-11-07T03:55:23.559Z,7.3
2022-11-07T04:00:29.597Z,7.4
2022-11-07T04:05:17.896Z,7.4
2022-11-07T04:10:24.026Z,7.4
2022-11-07T04:15:30.112Z,7.4
2022-11-07T04:20:19.271Z,7.4
2022-11-07T04:25:25.190Z,7.5
2022-11-07T04:30:31.248Z,7.4
2022-11-07T04:35:20.241Z,7.4
2022-11-07T04:40:26.495Z,7.4
2022-11-07T04:45:32.147Z,7.4
2022-11-07T04:50:21.227Z,7.4
2022-11-07T04:55:27.290Z,7.4
2022-11-07T05:00:16.508Z,7.4
2022-11-07T05:05:21.697Z,7.4
2022-11-07T05:10:27.776Z,7.4
2022-11-07T05:15:16.705Z,7.4
2022-11-07T05:20:22.953Z,7.5
2022-11-07T05:25:28.931Z,7.5
2022-11-07T05:30:17.873Z,7.6
2022-11-07T05:35:23.995Z,7.6
2022-11-07T05:40:30.139Z,7.7
2022-11-07T05:45:18.904Z,7.6
2022-11-07T05:50:24.935Z,7.5
2022-11-07T05:55:31.001Z,7.4
2022-11-07T06:00:20.101Z,7.1
2022-11-07T06:05:26.836Z,7.0
2022-11-07T06:10:32.251Z,6.9
2022-11-07T06:15:21.155Z,6.8
2022-11-07T06:20:27.268Z,6.8
2022-11-07T06:25:16.278Z,6.8
2022-11-07T06:30:22.350Z,6.8
2022-11-07T06:35:28.534Z,6.7
2022-11-07T06:40:17.612Z,6.6
2022-11-07T06:45:23.508Z,6.5
2022-11-07T06:50:29.593Z,6.6
2022-11-07T06:55:18.592Z,6.6
2022-11-07T07:00:24.707Z,6.8
2022-11-07T07:05:29.811Z,7.1
2022-11-07T07:10:18.910Z,7.3
2022-11-07T07:15:24.905Z,7.2
2022-11-07T07:20:31.182Z,7.2
2022-11-07T07:25:20.128Z,7.2
2022-11-07T07:30:26.124Z,7.3
2022-11-07T07:35:32.167Z,7.5
2022-11-07T07:40:21.346Z,7.6
2022-11-07T07:45:27.190Z,7.6
2022-11-07T07:50:16.199Z,7.7
2022-11-07T07:55:22.231Z,7.9
2022-11-07T08:00:28.435Z,7.9
2022-11-07T08:05:16.636Z,8.1
2022-11-07T08:10:57.862Z,8.0
2022-11-07T08:15:28.771Z,8.3
2022-11-07T08:20:17.930Z,8.5
2022-11-07T08:25:23.990Z,8.5
2022-11-07T08:30:29.985Z,9.0
2022-11-07T08:35:18.964Z,8.9
2022-11-07T08:40:25.116Z,8.9
2022-11-07T08:45:30.822Z,9.7
2022-11-07T08:50:19.933Z,10.2
2022-11-07T08:55:25.960Z,9.9
2022-11-07T09:00:31.932Z,9.7
2022-11-07T09:05:21.261Z,9.5
2022-11-07T09:10:27.354Z,9.5
2022-11-07T09:15:16.436Z,9.4
2022-11-07T09:20:22.620Z,9.5
2022-11-07T09:25:28.631Z,9.5
2022-11-07T09:30:17.496Z,9.5
2022-11-07T09:35:23.734Z,9.6
2022-11-07T09:40:29.772Z,9.7
2022-11-07T09:45:18.716Z,9.9
2022-11-07T09:50:23.782Z,9.8
2022-11-07T09:55:29.849Z,9.9
2022-11-07T10:00:19.154Z,10.0
2022-11-07T10:10:31.367Z,10.3
2022-11-07T10:15:20.313Z,10.3
2022-11-07T10:20:26.558Z,10.4
2022-11-07T10:25:32.488Z,10.5
2022-11-07T10:30:21.511Z,10.4
2022-11-07T10:35:27.631Z,10.4
2022-11-07T10:40:16.687Z,10.2
2022-11-07T10:45:22.499Z,10.4
2022-11-07T10:50:28.375Z,10.4
2022-11-07T10:55:17.417Z,10.5
2022-11-07T11:00:23.556Z,10.5
2022-11-07T11:05:28.860Z,10.5
2022-11-07T11:10:17.846Z,10.7
2022-11-07T11:15:23.947Z,10.7
2022-11-07T11:20:29.970Z,10.8
2022-11-07T11:25:20.074Z,11.0
2022-11-07T11:30:25.086Z,11.0
2022-11-07T11:35:31.297Z,11.3
2022-11-07T11:40:20.270Z,11.4
2022-11-07T11:45:26.047Z,11.5
2022-11-07T11:50:31.983Z,11.3
2022-11-07T11:55:21.083Z,11.2
2022-11-07T12:00:27.294Z,11.5
2022-11-07T12:05:16.384Z,11.6
2022-11-07T12:10:22.660Z,11.6
2022-11-07T12:15:28.635Z,11.7
2022-11-07T12:20:17.654Z,11.7
2022-11-07T12:25:23.802Z,11.7
2022-11-07T12:30:29.865Z,11.7
2022-11-07T12:35:18.757Z,11.7
2022-11-07T12:40:24.850Z,11.8
2022-11-07T12:45:30.842Z,11.8
2022-11-07T12:50:19.670Z,11.8
2022-11-07T12:55:25.792Z,11.9
2022-11-07T13:00:31.821Z,12.0
2022-11-07T13:05:21.215Z,12.1
2022-11-07T13:10:27.281Z,12.2
2022-11-07T13:15:16.189Z,12.2
2022-11-07T13:20:22.355Z,12.3
2022-11-07T13:25:28.420Z,12.2
2022-11-07T13:30:17.391Z,12.2
2022-11-07T13:35:23.453Z,12.4
2022-11-07T13:40:29.529Z,12.3
2022-11-07T13:45:18.530Z,12.3
2022-11-07T13:50:24.507Z,12.2
2022-11-07T13:55:30.416Z,12.3
2022-11-07T14:05:24.819Z,12.3
2022-11-07T14:15:19.879Z,12.4
2022-11-07T14:20:25.935Z,12.4
2022-11-07T14:25:31.944Z,12.3
2022-11-07T14:30:21.228Z,12.2
2022-11-07T14:35:27.105Z,12.1
2022-11-07T14:40:16.177Z,12.1
2022-11-07T14:50:28.094Z,12.0
2022-11-07T14:55:16.947Z,12.0
2022-11-07T15:00:23.101Z,11.9
2022-11-07T15:05:29.472Z,11.9
2022-11-07T15:10:24.295Z,12.0
2022-11-07T15:15:24.559Z,12.1
2022-11-07T15:20:30.573Z,12.3
2022-11-07T15:25:19.561Z,12.3
2022-11-07T15:30:25.866Z,12.1
2022-11-07T15:40:20.819Z,11.5
2022-11-07T15:45:26.858Z,11.3
2022-11-07T15:50:15.538Z,11.1
2022-11-07T15:55:21.668Z,10.8
2022-11-07T16:00:27.735Z,10.7
2022-11-07T16:05:16.994Z,10.5
2022-11-07T16:10:23.941Z,10.4
2022-11-07T16:15:29.129Z,10.2
2022-11-07T16:20:18.226Z,10.1
2022-11-07T16:25:24.252Z,9.8
2022-11-07T16:30:30.372Z,9.6
2022-11-07T16:35:19.424Z,9.3
2022-11-07T16:40:25.556Z,8.9
2022-11-07T16:45:31.441Z,8.8
2022-11-07T16:50:20.209Z,8.7
2022-11-07T16:55:26.374Z,8.6
2022-11-07T17:00:32.376Z,8.5
2022-11-07T17:05:20.667Z,8.4
2022-11-07T17:10:26.831Z,8.2
2022-11-07T17:15:15.802Z,7.9
2022-11-07T17:20:49.369Z,7.9
2022-11-07T17:25:27.996Z,7.6
2022-11-07T17:30:16.980Z,7.5
2022-11-07T17:35:32.292Z,7.4
2022-11-07T17:40:29.245Z,7.3
2022-11-07T17:45:18.108Z,7.3
2022-11-07T17:50:24.017Z,7.1
2022-11-07T17:55:30.215Z,7.1
2022-11-07T18:00:19.280Z,7.1
2022-11-07T18:05:28.687Z,7.1
2022-11-07T18:10:30.714Z,7.1
2022-11-07T18:15:19.709Z,7.1
2022-11-07T18:20:25.883Z,7.0
2022-11-07T18:25:31.931Z,6.9
2022-11-07T18:30:20.926Z,6.8
2022-11-07T18:35:27.178Z,6.8
2022-11-07T18:40:16.118Z,6.7
2022-11-07T18:45:22.275Z,6.6
2022-11-07T18:50:27.567Z,6.6
2022-11-07T18:55:16.675Z,6.5
2022-11-07T19:00:22.805Z,6.4
2022-11-07T19:05:28.990Z,6.3
2022-11-07T19:10:18.102Z,6.2
2022-11-07T19:15:24.238Z,6.1
2022-11-07T19:20:30.975Z,5.9
2022-11-07T19:25:19.252Z,5.9
2022-11-07T19:30:25.377Z,5.7
2022-11-07T19:35:31.367Z,5.7
2022-11-07T19:40:20.537Z,5.6
2022-11-07T19:45:26.558Z,5.5
2022-11-07T19:50:32.229Z,5.3
2022-11-07T19:55:21.233Z,5.1
2022-11-07T20:00:27.570Z,5.1
2022-11-07T20:05:15.638Z,4.9
2022-11-07T20:10:21.737Z,4.9
2022-11-07T20:15:27.755Z,4.8
2022-11-07T20:20:16.882Z,4.7
2022-11-07T20:25:22.956Z,4.7
2022-11-07T20:30:28.952Z,4.6
2022-11-07T20:35:17.977Z,4.6
2022-11-07T20:40:29.002Z,4.6
2022-11-07T20:45:30.295Z,4.6
2022-11-07T20:50:18.854Z,4.7
2022-11-07T20:55:24.997Z,4.7
2022-11-07T21:00:31.214Z,4.8
2022-11-07T21:05:20.368Z,4.8
2022-11-07T21:10:26.388Z,4.9
2022-11-07T21:15:32.503Z,5.0
2022-11-07T21:20:21.629Z,5.0
2022-11-07T21:25:27.556Z,5.1
2022-11-07T21:30:16.590Z,5.2
2022-11-07T21:35:22.667Z,5.3
2022-11-07T21:40:28.840Z,5.3
2022-11-07T21:45:17.814Z,5.4
2022-11-07T21:50:43.735Z,5.5
2022-11-07T21:55:29.610Z,5.7
2022-11-07T22:00:18.712Z,5.8
2022-11-07T22:05:24.071Z,5.8
2022-11-07T22:10:30.047Z,5.8
2022-11-07T22:15:19.133Z,5.7
2022-11-07T22:20:25.205Z,5.8
2022-11-07T22:25:31.226Z,5.7
2022-11-07T22:30:20.205Z,5.6
2022-11-07T22:35:26.284Z,5.5
2022-11-07T22:40:32.383Z,5.4
2022-11-07T22:45:21.431Z,5.3
2022-11-07T22:50:27.207Z,5.2
2022-11-07T22:55:16.142Z,5.1
2022-11-07T23:00:22.321Z,5.1
2022-11-07T23:05:27.802Z,5.0
2022-11-07T23:10:16.672Z,4.8
2022-11-07T23:15:22.650Z,4.7
2022-11-07T23:20:28.718Z,4.6
2022-11-07T23:25:17.777Z,4.5
2022-11-07T23:30:23.857Z,4.5
2022-11-07T23:35:29.905Z,4.3
2022-11-07T23:40:19.004Z,4.2
2022-11-07T23:45:25.006Z,4.1
2022-11-07T23:50:30.909Z,4.0
2022-11-07T23:55:19.864Z,3.9
